सभी
Laverton Airport (Laverton, Western Australia) LVO मौसम
|
Laverton, Western Australia (LVO / YLTN)
स्वच्छ आकाश
हल्की हवाएं |
|
11 °C |
There is no TAF data available at LVO or any nearby airports.
Recent LVO METAR history
| Date | Time (AWST) | Flight Rules | Wind Dir. | Speed | Type | Height AGL (ft) | Visibility | Temp (°C) | Temp (°F) | Dew Point (°C) | Dew Point (°F) | Rel. Humid. | Pressure | Density Altitude | Remarks |
|---|---|---|---|---|---|---|---|---|---|---|---|---|---|---|---|
| 05-मई | 04:00 | n/a | 150° | 5 kt | Missing | 11° | 51° | 10° | 50° | 94% | 1026 mb | 905 ft | |||
| 05-मई | 03:00 | n/a | 140° | 4 kt | Missing | 10° | 50° | 10° | 50° | 100% | 1026 mb | 785 ft | |||
| 05-मई | 02:00 | n/a | 130° | 5 kt | Missing | 11° | 51° | 10° | 50° | 94% | 1026 mb | 905 ft | |||
| 05-मई | 01:00 | n/a | 110° | 6 kt | Missing | 11° | 51° | 9° | 48° | 87% | 1026 mb | 905 ft | |||
| 05-मई | 00:00 | n/a | 110° | 7 kt | Missing | 12° | 53° | 9° | 48° | 82% | 1026 mb | 1,025 ft | |||
| 04-मई | 23:00 | n/a | 110° | 9 kt | Missing | 12° | 53° | 9° | 48° | 82% | 1026 mb | 1,025 ft | |||
| 04-मई | 22:00 | n/a | 110° | 7 kt | Missing | 13° | 55° | 9° | 48° | 77% | 1026 mb | 1,145 ft | |||
| 04-मई | 21:00 | n/a | 110° | 8 kt | Missing | 14° | 57° | 9° | 48° | 72% | 1027 mb | 1,235 ft | |||
| 04-मई | 20:00 | n/a | 130° | 8 kt | Missing | 14° | 57° | 9° | 48° | 72% | 1026 mb | 1,265 ft | |||
| 04-मई | 19:00 | n/a | 130° | 9 kt | Missing | 16° | 60° | 9° | 48° | 63% | 1026 mb | 1,505 ft | |||
| 04-मई | 18:00 | n/a | 140° | 9 kt | Missing | 17° | 62° | 8° | 46° | 55% | 1025 mb | 1,654 ft | |||
| 04-मई | 17:00 | n/a | 140° | 9 kt | Missing | 18° | 64° | 8° | 46° | 52% | 1024 mb | 1,804 ft | |||
| 04-मई | 16:00 | n/a | 150° | 9 kt | Missing | 19° | 66° | 8° | 46° | 49% | 1024 mb | 1,924 ft | |||
| 04-मई | 15:00 | n/a | 140° | 9 kt | Missing | 19° | 66° | 8° | 46° | 49% | 1024 mb | 1,924 ft | |||
| 04-मई | 14:00 | n/a | 150° | 8 kt | Missing | 19° | 66° | 8° | 46° | 49% | 1024 mb | 1,924 ft | |||
| 04-मई | 13:00 | n/a | 130° | 8 kt | Missing | 19° | 66° | 8° | 46° | 49% | 1025 mb | 1,894 ft | |||
| 04-मई | 12:00 | n/a | 140° | 9 kt | Missing | 17° | 62° | 9° | 48° | 59% | 1026 mb | 1,625 ft | |||
| 04-मई | 11:00 | n/a | 140° | 8 kt | Missing | 17° | 62° | 9° | 48° | 59% | 1027 mb | 1,595 ft | |||
| 04-मई | 10:00 | n/a | 130° | 9 kt | Missing | 16° | 60° | 10° | 50° | 68% | 1027 mb | 1,475 ft | |||
| 04-मई | 09:00 | n/a | 120° | 10 kt | Missing | 15° | 59° | 11° | 51° | 77% | 1027 mb | 1,355 ft | |||
| 04-मई | 08:00 | n/a | 130° | 8 kt | Missing | 13° | 55° | 12° | 53° | 94% | 1027 mb | 1,115 ft | |||
| 04-मई | 07:00 | n/a | 130° | 4 kt | Missing | 10° | 50° | 10° | 50° | 100% | 1026 mb | 785 ft | |||
| 04-मई | 06:00 | n/a | 140° | 4 kt | Missing | 9° | 48° | 9° | 48° | 100% | 1026 mb | 665 ft | |||
| 04-मई | 05:00 | n/a | 130° | 4 kt | Missing | 9° | 48° | 9° | 48° | 100% | 1025 mb | 694 ft |
लॉगिन
| Your browser is unsupported. अपना ब्राऊजर अपग्रेड करें |
